createdAt,value
2023-03-08T00:01:04.098Z,44.00
2023-03-08T00:03:33.680Z,43.90
2023-03-08T00:06:05.614Z,44.00
2023-03-08T00:08:33.885Z,43.70
2023-03-08T00:11:05.302Z,43.90
2023-03-08T00:13:33.531Z,43.60
2023-03-08T00:16:01.831Z,43.50
2023-03-08T00:18:29.997Z,43.60
2023-03-08T00:21:04.102Z,43.80
2023-03-08T00:23:32.253Z,43.80
2023-03-08T00:26:00.483Z,43.90
2023-03-08T00:28:29.255Z,43.90
2023-03-08T00:30:58.737Z,43.70
2023-03-08T00:33:27.323Z,43.40
2023-03-08T00:35:59.786Z,43.30
2023-03-08T00:38:29.495Z,43.30
2023-03-08T00:40:57.631Z,43.00
2023-03-08T00:43:26.031Z,43.10
2023-03-08T00:45:54.355Z,43.10
2023-03-08T00:48:24.351Z,43.30
2023-03-08T00:50:53.413Z,43.40
2023-03-08T00:53:21.642Z,43.00
2023-03-08T00:55:53.373Z,43.00
2023-03-08T00:58:22.563Z,43.50
2023-03-08T01:00:50.932Z,43.20
2023-03-08T01:03:20.088Z,43.10
2023-03-08T01:05:51.587Z,43.10
2023-03-08T01:08:20.639Z,43.00
2023-03-08T01:10:49.628Z,43.20
2023-03-08T01:13:20.337Z,43.30
2023-03-08T01:15:48.660Z,43.30
2023-03-08T01:18:17.223Z,42.90
2023-03-08T01:20:45.352Z,42.90
2023-03-08T01:23:14.557Z,43.20
2023-03-08T01:25:42.728Z,43.10
2023-03-08T01:28:10.828Z,42.70
2023-03-08T01:30:40.421Z,42.80
2023-03-08T01:33:08.581Z,42.80
2023-03-08T01:35:39.127Z,42.90
2023-03-08T01:38:07.308Z,42.90
2023-03-08T01:40:35.452Z,42.90
2023-03-08T01:43:22.737Z,42.90
2023-03-08T01:46:07.231Z,43.30
2023-03-08T01:48:41.733Z,43.30
2023-03-08T01:51:20.624Z,43.20
2023-03-08T01:53:49.529Z,43.10
2023-03-08T01:56:19.993Z,42.90
2023-03-08T01:58:51.742Z,43.00
2023-03-08T02:01:22.356Z,42.60
2023-03-08T02:03:53.635Z,42.60
2023-03-08T02:06:22.789Z,42.50
2023-03-08T02:08:52.490Z,42.60
2023-03-08T02:11:23.070Z,42.60
2023-03-08T02:13:56.846Z,42.60
2023-03-08T02:16:27.086Z,42.50
2023-03-08T02:18:58.909Z,42.70
2023-03-08T02:21:29.459Z,42.70
2023-03-08T02:24:06.541Z,43.10
2023-03-08T02:26:36.225Z,42.90
2023-03-08T02:29:06.524Z,42.80
2023-03-08T02:31:34.862Z,42.40
2023-03-08T02:34:03.256Z,42.50
2023-03-08T02:36:31.967Z,42.90
2023-03-08T02:39:01.795Z,42.80
2023-03-08T02:41:30.220Z,42.50
2023-03-08T02:43:58.831Z,42.60
2023-03-08T02:46:27.286Z,42.40
2023-03-08T02:48:55.489Z,42.40
2023-03-08T02:51:23.878Z,42.50
2023-03-08T02:53:52.285Z,42.50
2023-03-08T02:56:22.091Z,42.50
2023-03-08T02:58:50.372Z,42.40
2023-03-08T03:01:18.598Z,42.40
2023-03-08T03:03:46.815Z,42.40
2023-03-08T03:06:16.646Z,42.40
2023-03-08T03:08:48.118Z,42.40
2023-03-08T03:11:19.404Z,42.40
2023-03-08T03:13:56.621Z,42.40
2023-03-08T03:16:27.405Z,42.40
2023-03-08T03:18:56.522Z,42.40
2023-03-08T03:21:25.517Z,42.40
2023-03-08T03:23:55.664Z,42.40
2023-03-08T03:26:30.487Z,42.40
2023-03-08T03:29:00.798Z,42.40
2023-03-08T03:31:33.380Z,42.40
2023-03-08T03:34:02.028Z,42.50
2023-03-08T03:36:30.462Z,42.70
2023-03-08T03:39:00.068Z,42.50
2023-03-08T03:41:29.218Z,42.40
2023-03-08T03:44:06.920Z,42.60
2023-03-08T03:46:35.957Z,42.50
2023-03-08T03:49:07.160Z,42.50
2023-03-08T03:51:39.475Z,42.50
2023-03-08T03:54:30.386Z,42.70
2023-03-08T03:57:00.554Z,42.80
2023-03-08T03:59:35.010Z,42.80
2023-03-08T04:02:04.095Z,42.70
2023-03-08T04:04:41.055Z,42.70
2023-03-08T04:07:12.417Z,42.70
2023-03-08T04:09:44.979Z,42.70
2023-03-08T04:12:17.166Z,42.70
2023-03-08T04:14:47.621Z,42.60
2023-03-08T04:17:17.514Z,42.60
2023-03-08T04:19:50.744Z,42.50
2023-03-08T04:22:20.352Z,42.40
2023-03-08T04:24:53.475Z,42.40
2023-03-08T04:27:39.817Z,42.30
2023-03-08T04:30:11.851Z,42.30
2023-03-08T04:32:40.300Z,42.30
2023-03-08T04:35:09.464Z,42.30
2023-03-08T04:37:40.570Z,42.30
2023-03-08T04:40:14.263Z,42.30
2023-03-08T04:42:49.302Z,42.20
2023-03-08T04:45:22.183Z,42.10
2023-03-08T04:47:51.120Z,42.10
2023-03-08T04:50:19.384Z,42.10
2023-03-08T04:52:47.797Z,42.30
2023-03-08T04:55:16.236Z,42.30
2023-03-08T04:57:45.947Z,42.30
2023-03-08T05:00:15.291Z,42.20
2023-03-08T05:02:46.088Z,42.10
2023-03-08T05:05:18.207Z,42.40
2023-03-08T05:07:47.045Z,42.40
2023-03-08T05:10:15.182Z,42.30
2023-03-08T05:12:43.596Z,42.40
2023-03-08T05:15:12.669Z,42.30
2023-03-08T05:17:40.830Z,42.40
2023-03-08T05:20:12.093Z,42.40
2023-03-08T05:22:57.277Z,42.30
2023-03-08T05:25:30.907Z,42.30
2023-03-08T05:27:59.685Z,42.20
2023-03-08T05:30:28.013Z,42.30
2023-03-08T05:32:57.022Z,42.20
2023-03-08T05:35:27.292Z,42.20
2023-03-08T05:37:55.392Z,42.20
2023-03-08T05:40:23.579Z,42.20
2023-03-08T05:42:52.652Z,42.20
2023-03-08T05:45:21.020Z,42.20
2023-03-08T05:47:49.189Z,42.10
2023-03-08T05:50:17.809Z,42.00
2023-03-08T05:52:49.268Z,42.00
2023-03-08T05:55:22.802Z,42.00
2023-03-08T05:57:51.824Z,42.00
2023-03-08T06:00:22.385Z,41.90
2023-03-08T06:02:55.638Z,42.10
2023-03-08T06:05:24.815Z,42.10
2023-03-08T06:07:58.095Z,42.20
2023-03-08T06:10:26.958Z,42.40
2023-03-08T06:12:55.875Z,42.50
2023-03-08T06:15:25.907Z,42.70
2023-03-08T06:17:55.215Z,42.90
2023-03-08T06:20:26.209Z,43.00
2023-03-08T06:22:54.484Z,43.20
2023-03-08T06:25:24.093Z,43.30
2023-03-08T06:27:52.377Z,43.40
2023-03-08T06:30:40.918Z,43.50
2023-03-08T06:33:09.121Z,43.50
2023-03-08T06:35:37.447Z,43.70
2023-03-08T06:38:06.720Z,43.80
2023-03-08T06:40:37.062Z,43.80
2023-03-08T06:43:05.331Z,43.90
2023-03-08T06:45:34.866Z,44.10
2023-03-08T06:48:03.127Z,44.20
2023-03-08T06:50:31.369Z,44.30
2023-03-08T06:53:00.418Z,44.40
2023-03-08T06:55:47.527Z,44.40
2023-03-08T06:58:16.035Z,44.40
2023-03-08T07:00:44.220Z,44.30
2023-03-08T07:03:13.853Z,44.20
2023-03-08T07:05:42.652Z,44.20
2023-03-08T07:08:10.815Z,44.20
2023-03-08T07:10:39.039Z,44.20
2023-03-08T07:13:08.890Z,44.20
2023-03-08T07:15:40.910Z,44.20
2023-03-08T07:18:09.168Z,44.20
2023-03-08T07:20:37.378Z,44.10
2023-03-08T07:23:05.557Z,44.00
2023-03-08T07:25:33.859Z,43.90
2023-03-08T07:28:02.210Z,43.80
2023-03-08T07:30:31.770Z,43.80
2023-03-08T07:33:00.015Z,43.70
2023-03-08T07:35:28.248Z,43.50
2023-03-08T07:37:56.618Z,43.30
2023-03-08T07:40:24.887Z,43.40
2023-03-08T07:42:53.053Z,43.60
2023-03-08T07:45:40.547Z,43.60
2023-03-08T07:48:08.798Z,43.50
2023-03-08T07:50:36.965Z,43.40
2023-03-08T07:53:05.500Z,43.30
2023-03-08T07:55:33.588Z,43.30
2023-03-08T07:58:01.848Z,43.30
2023-03-08T08:00:30.178Z,43.30
2023-03-08T08:02:59.756Z,43.30
2023-03-08T08:05:28.088Z,43.30
2023-03-08T08:07:56.323Z,43.30
2023-03-08T08:10:24.620Z,43.30
2023-03-08T08:12:52.788Z,43.20
2023-03-08T08:15:21.023Z,43.30
2023-03-08T08:17:49.217Z,43.30
2023-03-08T08:20:18.995Z,43.10
2023-03-08T08:22:47.177Z,43.30
2023-03-08T08:25:15.319Z,43.10
2023-03-08T08:27:43.520Z,43.30
2023-03-08T08:30:14.800Z,43.30
2023-03-08T08:32:42.964Z,43.10
2023-03-08T08:35:14.125Z,43.30
2023-03-08T08:37:43.663Z,43.10
2023-03-08T08:40:13.170Z,43.30
2023-03-08T08:42:41.429Z,43.30
2023-03-08T08:45:11.245Z,43.30
2023-03-08T08:47:39.517Z,43.30
2023-03-08T08:50:08.115Z,43.10
2023-03-08T08:52:36.286Z,43.20
2023-03-08T08:55:06.530Z,43.30
2023-03-08T08:57:36.200Z,43.30
2023-03-08T09:00:08.792Z,43.30
2023-03-08T09:02:37.118Z,43.20
2023-03-08T09:05:05.436Z,43.20
2023-03-08T09:07:33.662Z,43.30
2023-03-08T09:10:01.825Z,43.20
2023-03-08T09:12:33.513Z,43.20
2023-03-08T09:15:01.790Z,43.40
2023-03-08T09:17:30.610Z,43.40
2023-03-08T09:19:59.259Z,43.30
2023-03-08T09:22:27.656Z,43.40
2023-03-08T09:24:55.831Z,43.50
2023-03-08T09:27:24.049Z,43.50
2023-03-08T09:29:53.664Z,43.60
2023-03-08T09:32:22.013Z,43.50
2023-03-08T09:34:50.205Z,43.60
2023-03-08T09:37:18.565Z,43.60
2023-03-08T09:39:46.843Z,43.60
2023-03-08T09:42:23.450Z,43.60
2023-03-08T09:45:20.905Z,43.70
2023-03-08T09:47:52.104Z,43.70
2023-03-08T09:50:35.761Z,43.50
2023-03-08T09:53:11.998Z,43.40
2023-03-08T09:55:48.601Z,43.30
2023-03-08T09:58:23.428Z,43.30
2023-03-08T10:00:53.247Z,43.30
2023-03-08T10:03:49.223Z,43.60
2023-03-08T10:06:22.724Z,43.70
2023-03-08T10:08:56.348Z,43.70
2023-03-08T10:11:31.313Z,43.70
2023-03-08T10:14:12.987Z,43.70
2023-03-08T10:16:46.929Z,43.80
2023-03-08T10:19:19.924Z,43.80
2023-03-08T10:21:48.863Z,43.80
2023-03-08T10:24:26.598Z,43.80
2023-03-08T10:26:56.020Z,43.90
2023-03-08T10:29:24.142Z,43.80
2023-03-08T10:31:53.795Z,43.90
2023-03-08T10:34:26.474Z,43.90
2023-03-08T10:37:00.816Z,44.00
2023-03-08T10:39:29.318Z,44.00
2023-03-08T10:41:59.945Z,44.00
2023-03-08T10:44:36.219Z,44.10
2023-03-08T10:47:21.398Z,44.10
2023-03-08T10:49:51.577Z,44.20
2023-03-08T10:52:26.423Z,44.10
2023-03-08T10:55:06.100Z,44.10
2023-03-08T10:57:34.962Z,44.10
2023-03-08T11:00:13.580Z,44.10
2023-03-08T11:02:43.125Z,44.10
2023-03-08T11:05:21.166Z,44.10
2023-03-08T11:07:53.636Z,44.20
2023-03-08T11:10:24.679Z,44.20
2023-03-08T11:13:03.263Z,44.10
2023-03-08T11:15:35.951Z,44.10
2023-03-08T11:18:12.431Z,44.10
2023-03-08T11:20:45.454Z,44.10
2023-03-08T11:23:26.477Z,44.20
2023-03-08T11:26:01.156Z,44.30
2023-03-08T11:29:01.818Z,44.30
2023-03-08T11:31:34.982Z,44.30
2023-03-08T11:34:37.422Z,44.40
2023-03-08T11:37:13.573Z,44.40
2023-03-08T11:39:47.725Z,44.50
2023-03-08T11:42:27.722Z,44.50
2023-03-08T11:45:12.399Z,44.60
2023-03-08T11:48:08.474Z,44.60
2023-03-08T11:50:43.423Z,44.60
2023-03-08T11:53:19.570Z,44.70
2023-03-08T11:56:03.351Z,44.70
2023-03-08T11:58:36.271Z,44.70
2023-03-08T12:01:10.685Z,44.80
2023-03-08T12:03:43.424Z,44.80
2023-03-08T12:06:27.889Z,44.80
2023-03-08T12:09:00.405Z,44.90
2023-03-08T12:11:32.860Z,44.90
2023-03-08T12:14:08.715Z,45.00
2023-03-08T12:16:46.098Z,45.00
2023-03-08T12:19:22.241Z,45.10
2023-03-08T12:21:59.876Z,45.10
2023-03-08T12:24:39.662Z,45.10
2023-03-08T12:27:14.062Z,45.10
2023-03-08T12:29:45.933Z,45.10
2023-03-08T12:32:15.502Z,45.10
2023-03-08T12:34:46.446Z,45.30
2023-03-08T12:37:24.530Z,45.60
2023-03-08T12:40:01.226Z,45.80
2023-03-08T12:42:36.106Z,45.80
2023-03-08T12:45:28.062Z,45.90
2023-03-08T12:47:58.648Z,45.90
2023-03-08T12:50:27.045Z,46.00
2023-03-08T12:52:58.796Z,46.00
2023-03-08T12:55:31.759Z,46.00
2023-03-08T12:58:04.143Z,46.00
2023-03-08T13:00:34.478Z,46.10
2023-03-08T13:03:05.838Z,46.10
2023-03-08T13:05:36.645Z,46.10
2023-03-08T13:08:23.440Z,46.20
2023-03-08T13:11:02.090Z,46.20
2023-03-08T13:13:39.668Z,46.30
2023-03-08T13:16:20.503Z,46.30
2023-03-08T13:18:50.201Z,46.30
2023-03-08T13:21:27.998Z,46.30
2023-03-08T13:24:02.451Z,46.20
2023-03-08T13:26:55.727Z,46.20
2023-03-08T13:29:28.922Z,46.20
2023-03-08T13:31:57.692Z,46.30
2023-03-08T13:34:30.595Z,46.20
2023-03-08T13:36:58.984Z,46.80
2023-03-08T13:39:31.446Z,46.90
2023-03-08T13:42:11.322Z,47.10
2023-03-08T13:44:39.796Z,47.10
2023-03-08T13:47:21.227Z,47.10
2023-03-08T13:49:51.947Z,47.10
2023-03-08T13:52:24.251Z,47.20
2023-03-08T13:54:56.461Z,47.40
2023-03-08T13:57:27.305Z,47.90
2023-03-08T13:59:59.507Z,48.30
2023-03-08T14:02:29.312Z,48.00
2023-03-08T14:04:58.266Z,47.70
2023-03-08T14:07:29.606Z,47.60
2023-03-08T14:10:00.714Z,47.60
2023-03-08T14:12:32.131Z,47.50
2023-03-08T14:15:03.865Z,47.50
2023-03-08T14:17:34.540Z,47.50
2023-03-08T14:20:07.116Z,47.40
2023-03-08T14:22:40.260Z,47.40
2023-03-08T14:25:23.559Z,47.40
2023-03-08T14:27:52.076Z,47.40
2023-03-08T14:30:30.533Z,47.40
2023-03-08T14:33:08.151Z,47.50
2023-03-08T14:35:39.618Z,47.70
2023-03-08T14:38:15.517Z,47.60
2023-03-08T14:40:50.614Z,47.50
2023-03-08T14:43:22.970Z,47.50
2023-03-08T14:45:56.655Z,47.50
2023-03-08T14:48:30.356Z,47.30
2023-03-08T14:51:00.873Z,47.30
2023-03-08T14:53:32.473Z,47.30
2023-03-08T14:56:08.626Z,47.30
2023-03-08T14:58:40.854Z,47.10
2023-03-08T15:01:09.154Z,47.20
2023-03-08T15:03:37.334Z,47.30
2023-03-08T15:06:12.093Z,47.20
2023-03-08T15:08:40.324Z,47.30
2023-03-08T15:11:09.962Z,47.20
2023-03-08T15:13:38.162Z,47.40
2023-03-08T15:16:08.245Z,47.50
2023-03-08T15:18:36.509Z,47.50
2023-03-08T15:21:05.151Z,47.50
2023-03-08T15:23:39.086Z,47.50
2023-03-08T15:26:09.664Z,47.40
2023-03-08T15:28:37.888Z,47.50
2023-03-08T15:31:06.382Z,47.50
2023-03-08T15:33:34.550Z,47.50
2023-03-08T15:36:02.861Z,47.50
2023-03-08T15:38:31.062Z,47.50
2023-03-08T15:40:59.197Z,47.60
2023-03-08T15:43:28.890Z,47.60
2023-03-08T15:45:57.463Z,47.50
2023-03-08T15:48:25.656Z,47.40
2023-03-08T15:50:53.804Z,47.30
2023-03-08T15:53:34.525Z,47.40
2023-03-08T15:56:03.314Z,47.40
2023-03-08T15:58:32.823Z,47.40
2023-03-08T16:01:01.360Z,47.40
2023-03-08T16:03:59.922Z,47.50
2023-03-08T16:13:44.422Z,47.40
2023-03-08T16:16:13.356Z,47.40
2023-03-08T16:18:41.542Z,47.40
2023-03-08T16:21:10.637Z,47.80
2023-03-08T16:23:41.622Z,47.90
2023-03-08T16:26:16.319Z,48.00
2023-03-08T16:28:47.871Z,48.30
2023-03-08T16:31:17.182Z,48.40
2023-03-08T16:33:46.528Z,48.30
2023-03-08T16:36:15.428Z,48.20
2023-03-08T16:38:43.766Z,48.20
2023-03-08T16:41:13.526Z,48.20
2023-03-08T16:43:49.827Z,48.20
2023-03-08T16:46:21.960Z,48.20
2023-03-08T16:48:54.397Z,48.20
2023-03-08T16:51:24.509Z,48.20
2023-03-08T16:53:52.740Z,48.30
2023-03-08T16:56:21.978Z,48.30
2023-03-08T16:58:50.302Z,48.40
2023-03-08T17:01:20.908Z,48.40
2023-03-08T17:03:49.250Z,48.40
2023-03-08T17:06:20.307Z,48.40
2023-03-08T17:08:48.744Z,48.40
2023-03-08T17:11:17.399Z,48.50
2023-03-08T17:13:50.922Z,48.50
2023-03-08T17:16:21.555Z,48.50
2023-03-08T17:18:50.545Z,48.60
2023-03-08T17:21:19.246Z,48.70
2023-03-08T17:23:47.952Z,48.70
2023-03-08T17:26:17.623Z,48.80
2023-03-08T17:28:45.848Z,48.90
2023-03-08T17:31:16.844Z,48.90
2023-03-08T17:33:46.641Z,49.00
2023-03-08T17:36:15.981Z,48.90
2023-03-08T17:38:44.251Z,49.00
2023-03-08T17:41:14.957Z,49.00
2023-03-08T17:43:43.435Z,49.10
2023-03-08T17:46:14.490Z,49.10
2023-03-08T17:48:43.256Z,49.20
2023-03-08T17:51:15.102Z,49.20
2023-03-08T17:53:45.342Z,49.10
2023-03-08T17:56:15.876Z,49.20
2023-03-08T17:58:44.215Z,49.10
2023-03-08T18:01:14.047Z,49.20
2023-03-08T18:03:42.724Z,49.10
2023-03-08T18:06:20.685Z,49.20
2023-03-08T18:08:48.941Z,49.30
2023-03-08T18:11:17.398Z,49.40
2023-03-08T18:13:45.569Z,49.50
2023-03-08T18:16:14.052Z,49.70
2023-03-08T18:18:42.264Z,49.70
2023-03-08T18:21:13.906Z,49.80
2023-03-08T18:23:44.075Z,49.80
2023-03-08T18:26:13.014Z,49.80
2023-03-08T18:28:41.790Z,49.80
2023-03-08T18:31:11.460Z,50.10
2023-03-08T18:33:39.638Z,50.20
2023-03-08T18:36:08.523Z,50.30
2023-03-08T18:38:36.969Z,50.30
2023-03-08T18:41:14.868Z,50.20
2023-03-08T18:43:43.274Z,50.20
2023-03-08T18:46:13.694Z,50.30
2023-03-08T18:48:42.769Z,50.30
2023-03-08T18:51:11.010Z,50.40
2023-03-08T18:53:39.256Z,50.30
2023-03-08T18:56:08.246Z,50.30
2023-03-08T18:58:37.792Z,50.50
2023-03-08T19:01:12.217Z,50.40
2023-03-08T19:03:41.406Z,50.20
2023-03-08T19:06:10.171Z,50.30
2023-03-08T19:08:38.422Z,50.40
2023-03-08T19:11:14.406Z,50.40
2023-03-08T19:13:44.616Z,50.40
2023-03-08T19:16:19.644Z,50.30
2023-03-08T19:18:48.315Z,50.50
2023-03-08T19:21:18.038Z,50.60
2023-03-08T19:23:46.400Z,50.40
2023-03-08T19:26:33.032Z,50.50
2023-03-08T19:29:02.914Z,50.20
2023-03-08T19:31:31.648Z,50.70
2023-03-08T19:34:01.202Z,50.60
2023-03-08T19:36:29.414Z,50.50
2023-03-08T19:38:57.864Z,50.40
2023-03-08T19:41:26.373Z,50.50
2023-03-08T19:43:54.742Z,50.50
2023-03-08T19:46:24.800Z,51.00
2023-03-08T19:48:53.014Z,51.10
2023-03-08T19:51:21.538Z,51.10
2023-03-08T19:53:49.992Z,51.20
2023-03-08T19:56:20.573Z,51.20
2023-03-08T19:58:49.525Z,51.30
2023-03-08T20:01:19.958Z,51.40
2023-03-08T20:03:49.710Z,51.50
2023-03-08T20:06:28.621Z,51.60
2023-03-08T20:08:57.029Z,51.80
2023-03-08T20:11:25.639Z,51.70
2023-03-08T20:13:53.819Z,51.80
2023-03-08T20:16:23.537Z,51.80
2023-03-08T20:18:55.849Z,51.80
2023-03-08T20:21:26.803Z,51.70
2023-03-08T20:23:56.221Z,51.70
2023-03-08T20:26:24.820Z,51.80
2023-03-08T20:28:53.490Z,51.90
2023-03-08T20:31:21.661Z,52.40
2023-03-08T20:33:49.829Z,52.60
2023-03-08T20:36:19.462Z,52.60
2023-03-08T20:38:47.651Z,52.50
2023-03-08T20:41:17.995Z,52.50
2023-03-08T20:43:47.874Z,52.60
2023-03-08T20:46:17.923Z,52.80
2023-03-08T20:48:47.138Z,53.00
2023-03-08T20:51:17.379Z,52.80
2023-03-08T20:53:50.353Z,53.00
2023-03-08T20:56:21.419Z,53.10
2023-03-08T20:58:53.875Z,53.00
2023-03-08T21:01:25.047Z,52.80
2023-03-08T21:03:53.392Z,52.90
2023-03-08T21:06:23.497Z,53.20
2023-03-08T21:08:53.579Z,52.90
2023-03-08T21:11:22.466Z,53.00
2023-03-08T21:13:52.185Z,53.00
2023-03-08T21:16:22.709Z,52.90
2023-03-08T21:18:51.260Z,53.10
2023-03-08T21:21:21.745Z,53.10
2023-03-08T21:23:52.384Z,53.20
2023-03-08T21:26:24.355Z,52.70
2023-03-08T21:28:52.734Z,53.00
2023-03-08T21:31:21.267Z,53.10
2023-03-08T21:33:49.506Z,52.90
2023-03-08T21:36:18.384Z,52.90
2023-03-08T21:38:46.733Z,52.80
2023-03-08T21:41:18.726Z,52.80
2023-03-08T21:43:48.629Z,52.70
2023-03-08T21:46:17.084Z,52.80
2023-03-08T21:48:45.286Z,52.80
2023-03-08T21:51:13.982Z,52.80
2023-03-08T21:53:42.741Z,52.70
2023-03-08T21:56:11.780Z,52.60
2023-03-08T21:58:40.277Z,52.70
2023-03-08T22:01:19.577Z,52.70
2023-03-08T22:03:47.890Z,52.70
2023-03-08T22:06:16.712Z,52.70
2023-03-08T22:08:45.284Z,52.70
2023-03-08T22:11:13.634Z,52.60
2023-03-08T22:13:42.267Z,52.90
2023-03-08T22:16:11.947Z,52.60
2023-03-08T22:18:40.134Z,52.70
2023-03-08T22:21:08.347Z,52.40
2023-03-08T22:23:36.556Z,52.40
2023-03-08T22:26:08.913Z,52.60
2023-03-08T22:28:37.213Z,52.60
2023-03-08T22:31:11.908Z,52.60
2023-03-08T22:33:40.746Z,52.50
2023-03-08T22:36:11.573Z,52.70
2023-03-08T22:38:40.735Z,52.50
2023-03-08T22:41:13.680Z,52.40
2023-03-08T22:43:42.500Z,52.50
2023-03-08T22:46:16.122Z,52.30
2023-03-08T22:48:45.203Z,52.50
2023-03-08T22:51:14.006Z,52.30
2023-03-08T22:53:42.717Z,52.20
2023-03-08T22:56:19.709Z,52.10
2023-03-08T22:58:48.035Z,52.00
2023-03-08T23:01:19.694Z,52.00
2023-03-08T23:03:49.559Z,52.10
2023-03-08T23:06:18.439Z,52.10
2023-03-08T23:08:47.064Z,52.00
2023-03-08T23:11:15.280Z,52.10
2023-03-08T23:13:43.510Z,52.10
2023-03-08T23:16:13.759Z,52.30
2023-03-08T23:18:43.897Z,52.30
2023-03-08T23:21:13.621Z,52.40
2023-03-08T23:23:42.394Z,52.40
2023-03-08T23:26:13.192Z,52.40
2023-03-08T23:28:42.814Z,52.40
2023-03-08T23:31:12.969Z,52.40
2023-03-08T23:33:41.503Z,52.40
2023-03-08T23:36:12.785Z,52.30
2023-03-08T23:38:40.987Z,52.40
2023-03-08T23:41:10.849Z,52.30
2023-03-08T23:43:39.928Z,52.40
2023-03-08T23:46:08.801Z,52.40
2023-03-08T23:48:37.503Z,52.50
2023-03-08T23:51:07.113Z,52.40
2023-03-08T23:53:36.921Z,52.50
2023-03-08T23:56:06.548Z,52.60
2023-03-08T23:58:34.764Z,52.60
